sensor_id;sensor_type;location;lat;lon;timestamp;P1;durP1;ratioP1;P2;durP2;ratioP2
15526;SDS011;7865;50.918;4.510;2023-07-08T00:01:04;7.40;;;5.15;;
15526;SDS011;7865;50.918;4.510;2023-07-08T00:06:14;9.10;;;6.07;;
15526;SDS011;7865;50.918;4.510;2023-07-08T00:11:18;7.30;;;5.13;;
15526;SDS011;7865;50.918;4.510;2023-07-08T00:16:20;9.82;;;5.13;;
15526;SDS011;7865;50.918;4.510;2023-07-08T00:21:21;10.45;;;5.40;;
15526;SDS011;7865;50.918;4.510;2023-07-08T00:26:23;7.60;;;4.82;;
15526;SDS011;7865;50.918;4.510;2023-07-08T00:31:27;8.23;;;4.90;;
15526;SDS011;7865;50.918;4.510;2023-07-08T00:36:28;7.68;;;5.15;;
15526;SDS011;7865;50.918;4.510;2023-07-08T00:41:32;8.85;;;5.47;;
15526;SDS011;7865;50.918;4.510;2023-07-08T00:46:46;7.97;;;5.10;;
15526;SDS011;7865;50.918;4.510;2023-07-08T00:51:54;7.00;;;5.25;;
15526;SDS011;7865;50.918;4.510;2023-07-08T00:56:56;7.47;;;5.32;;
15526;SDS011;7865;50.918;4.510;2023-07-08T01:02:02;10.00;;;5.43;;
15526;SDS011;7865;50.918;4.510;2023-07-08T01:07:07;9.93;;;5.43;;
15526;SDS011;7865;50.918;4.510;2023-07-08T01:12:14;7.68;;;5.93;;
15526;SDS011;7865;50.918;4.510;2023-07-08T01:17:20;8.75;;;5.75;;
15526;SDS011;7865;50.918;4.510;2023-07-08T01:22:22;9.55;;;5.45;;
15526;SDS011;7865;50.918;4.510;2023-07-08T01:27:24;9.45;;;5.30;;
15526;SDS011;7865;50.918;4.510;2023-07-08T01:32:25;9.77;;;5.47;;
15526;SDS011;7865;50.918;4.510;2023-07-08T01:37:32;8.45;;;5.53;;
15526;SDS011;7865;50.918;4.510;2023-07-08T01:42:38;9.45;;;5.57;;
15526;SDS011;7865;50.918;4.510;2023-07-08T01:47:40;9.18;;;5.43;;
15526;SDS011;7865;50.918;4.510;2023-07-08T01:52:43;8.95;;;5.60;;
15526;SDS011;7865;50.918;4.510;2023-07-08T01:57:45;7.10;;;5.07;;
15526;SDS011;7865;50.918;4.510;2023-07-08T02:02:46;8.13;;;5.80;;
15526;SDS011;7865;50.918;4.510;2023-07-08T02:07:48;9.80;;;5.57;;
15526;SDS011;7865;50.918;4.510;2023-07-08T02:12:49;8.60;;;6.18;;
15526;SDS011;7865;50.918;4.510;2023-07-08T02:17:50;7.33;;;6.00;;
15526;SDS011;7865;50.918;4.510;2023-07-08T02:22:51;8.57;;;6.50;;
15526;SDS011;7865;50.918;4.510;2023-07-08T02:27:53;8.73;;;6.07;;
15526;SDS011;7865;50.918;4.510;2023-07-08T02:32:57;9.57;;;5.77;;
15526;SDS011;7865;50.918;4.510;2023-07-08T02:37:59;10.03;;;6.20;;
15526;SDS011;7865;50.918;4.510;2023-07-08T02:43:00;10.77;;;6.47;;
15526;SDS011;7865;50.918;4.510;2023-07-08T02:48:02;10.17;;;6.60;;
15526;SDS011;7865;50.918;4.510;2023-07-08T02:53:03;9.50;;;5.77;;
15526;SDS011;7865;50.918;4.510;2023-07-08T02:58:05;10.63;;;6.07;;
15526;SDS011;7865;50.918;4.510;2023-07-08T03:03:06;7.37;;;6.10;;
15526;SDS011;7865;50.918;4.510;2023-07-08T03:08:08;8.27;;;6.90;;
15526;SDS011;7865;50.918;4.510;2023-07-08T03:13:09;8.33;;;6.53;;
15526;SDS011;7865;50.918;4.510;2023-07-08T03:18:11;8.67;;;6.13;;
15526;SDS011;7865;50.918;4.510;2023-07-08T03:23:12;9.10;;;5.97;;
15526;SDS011;7865;50.918;4.510;2023-07-08T03:28:13;8.97;;;5.60;;
15526;SDS011;7865;50.918;4.510;2023-07-08T03:33:17;7.87;;;5.80;;
15526;SDS011;7865;50.918;4.510;2023-07-08T03:38:18;10.80;;;6.33;;
15526;SDS011;7865;50.918;4.510;2023-07-08T03:43:19;7.80;;;5.97;;
15526;SDS011;7865;50.918;4.510;2023-07-08T03:48:21;9.27;;;6.53;;
15526;SDS011;7865;50.918;4.510;2023-07-08T03:53:24;8.10;;;6.10;;
15526;SDS011;7865;50.918;4.510;2023-07-08T03:58:27;7.70;;;5.90;;
15526;SDS011;7865;50.918;4.510;2023-07-08T04:03:28;8.50;;;6.37;;
15526;SDS011;7865;50.918;4.510;2023-07-08T04:08:30;9.93;;;6.23;;
15526;SDS011;7865;50.918;4.510;2023-07-08T04:13:32;10.53;;;7.27;;
15526;SDS011;7865;50.918;4.510;2023-07-08T04:18:33;12.83;;;6.60;;
15526;SDS011;7865;50.918;4.510;2023-07-08T04:23:35;11.33;;;7.00;;
15526;SDS011;7865;50.918;4.510;2023-07-08T04:28:36;9.88;;;6.50;;
15526;SDS011;7865;50.918;4.510;2023-07-08T04:33:38;12.65;;;6.50;;
15526;SDS011;7865;50.918;4.510;2023-07-08T04:38:39;9.35;;;6.72;;
15526;SDS011;7865;50.918;4.510;2023-07-08T04:43:42;8.00;;;6.22;;
15526;SDS011;7865;50.918;4.510;2023-07-08T04:48:43;13.80;;;7.28;;
15526;SDS011;7865;50.918;4.510;2023-07-08T04:53:45;12.93;;;6.97;;
15526;SDS011;7865;50.918;4.510;2023-07-08T04:58:46;11.02;;;7.90;;
15526;SDS011;7865;50.918;4.510;2023-07-08T05:03:47;11.98;;;6.93;;
15526;SDS011;7865;50.918;4.510;2023-07-08T05:08:48;12.50;;;8.00;;
15526;SDS011;7865;50.918;4.510;2023-07-08T05:13:50;9.77;;;7.80;;
15526;SDS011;7865;50.918;4.510;2023-07-08T05:18:51;10.90;;;7.93;;
15526;SDS011;7865;50.918;4.510;2023-07-08T05:23:53;8.68;;;7.05;;
15526;SDS011;7865;50.918;4.510;2023-07-08T05:28:54;9.68;;;7.75;;
15526;SDS011;7865;50.918;4.510;2023-07-08T05:33:56;9.02;;;5.95;;
15526;SDS011;7865;50.918;4.510;2023-07-08T05:38:57;9.80;;;7.30;;
15526;SDS011;7865;50.918;4.510;2023-07-08T05:43:58;9.38;;;6.60;;
15526;SDS011;7865;50.918;4.510;2023-07-08T05:48:59;10.63;;;6.72;;
15526;SDS011;7865;50.918;4.510;2023-07-08T05:54:02;9.75;;;6.60;;
15526;SDS011;7865;50.918;4.510;2023-07-08T05:59:04;8.57;;;6.38;;
15526;SDS011;7865;50.918;4.510;2023-07-08T06:04:05;7.95;;;6.65;;
15526;SDS011;7865;50.918;4.510;2023-07-08T06:09:07;11.60;;;6.95;;
15526;SDS011;7865;50.918;4.510;2023-07-08T06:14:08;10.68;;;6.75;;
15526;SDS011;7865;50.918;4.510;2023-07-08T06:19:09;11.23;;;6.63;;
15526;SDS011;7865;50.918;4.510;2023-07-08T06:24:11;7.30;;;6.35;;
15526;SDS011;7865;50.918;4.510;2023-07-08T06:29:12;10.95;;;7.20;;
15526;SDS011;7865;50.918;4.510;2023-07-08T06:34:13;10.27;;;6.90;;
15526;SDS011;7865;50.918;4.510;2023-07-08T06:39:15;8.07;;;7.10;;
15526;SDS011;7865;50.918;4.510;2023-07-08T06:44:16;10.55;;;6.80;;
15526;SDS011;7865;50.918;4.510;2023-07-08T06:49:17;10.88;;;6.57;;
15526;SDS011;7865;50.918;4.510;2023-07-08T06:54:18;13.13;;;7.22;;
15526;SDS011;7865;50.918;4.510;2023-07-08T06:59:19;9.25;;;6.65;;
15526;SDS011;7865;50.918;4.510;2023-07-08T07:04:21;9.38;;;6.55;;
15526;SDS011;7865;50.918;4.510;2023-07-08T07:09:22;9.35;;;6.20;;
15526;SDS011;7865;50.918;4.510;2023-07-08T07:14:23;9.23;;;6.00;;
15526;SDS011;7865;50.918;4.510;2023-07-08T07:19:27;8.93;;;6.60;;
15526;SDS011;7865;50.918;4.510;2023-07-08T07:24:29;12.90;;;6.40;;
15526;SDS011;7865;50.918;4.510;2023-07-08T07:29:38;8.35;;;5.80;;
15526;SDS011;7865;50.918;4.510;2023-07-08T07:34:42;7.55;;;6.10;;
15526;SDS011;7865;50.918;4.510;2023-07-08T07:39:44;9.52;;;6.57;;
15526;SDS011;7865;50.918;4.510;2023-07-08T07:44:45;7.30;;;5.93;;
15526;SDS011;7865;50.918;4.510;2023-07-08T07:49:46;10.55;;;6.38;;
15526;SDS011;7865;50.918;4.510;2023-07-08T07:54:48;8.93;;;6.03;;
15526;SDS011;7865;50.918;4.510;2023-07-08T07:59:49;7.55;;;5.70;;
15526;SDS011;7865;50.918;4.510;2023-07-08T08:04:51;9.20;;;5.80;;
15526;SDS011;7865;50.918;4.510;2023-07-08T08:09:52;13.57;;;6.70;;
15526;SDS011;7865;50.918;4.510;2023-07-08T08:14:53;7.22;;;6.22;;
15526;SDS011;7865;50.918;4.510;2023-07-08T08:19:55;9.00;;;6.72;;
15526;SDS011;7865;50.918;4.510;2023-07-08T08:24:56;9.63;;;6.88;;
15526;SDS011;7865;50.918;4.510;2023-07-08T08:29:57;7.90;;;6.35;;
15526;SDS011;7865;50.918;4.510;2023-07-08T08:34:58;9.90;;;6.95;;
15526;SDS011;7865;50.918;4.510;2023-07-08T08:40:03;7.95;;;6.45;;
15526;SDS011;7865;50.918;4.510;2023-07-08T08:45:05;8.75;;;6.93;;
15526;SDS011;7865;50.918;4.510;2023-07-08T08:55:45;7.22;;;6.47;;
15526;SDS011;7865;50.918;4.510;2023-07-08T09:00:55;8.40;;;6.78;;
15526;SDS011;7865;50.918;4.510;2023-07-08T09:06:07;8.20;;;6.60;;
15526;SDS011;7865;50.918;4.510;2023-07-08T09:22:05;8.88;;;7.07;;
15526;SDS011;7865;50.918;4.510;2023-07-08T09:27:15;7.78;;;6.95;;
15526;SDS011;7865;50.918;4.510;2023-07-08T09:32:18;8.07;;;6.85;;
15526;SDS011;7865;50.918;4.510;2023-07-08T09:37:29;7.85;;;6.50;;
15526;SDS011;7865;50.918;4.510;2023-07-08T09:42:32;11.77;;;7.68;;
15526;SDS011;7865;50.918;4.510;2023-07-08T09:47:36;7.63;;;6.82;;
15526;SDS011;7865;50.918;4.510;2023-07-08T09:52:38;9.43;;;6.88;;
15526;SDS011;7865;50.918;4.510;2023-07-08T09:57:39;8.18;;;7.38;;
15526;SDS011;7865;50.918;4.510;2023-07-08T10:02:45;9.73;;;6.53;;
15526;SDS011;7865;50.918;4.510;2023-07-08T10:07:55;7.28;;;6.43;;
15526;SDS011;7865;50.918;4.510;2023-07-08T10:13:01;11.75;;;6.90;;
15526;SDS011;7865;50.918;4.510;2023-07-08T10:18:09;6.95;;;6.25;;
15526;SDS011;7865;50.918;4.510;2023-07-08T10:45:43;9.10;;;7.78;;
15526;SDS011;7865;50.918;4.510;2023-07-08T10:51:13;8.05;;;7.20;;
15526;SDS011;7865;50.918;4.510;2023-07-08T10:56:29;8.95;;;6.97;;
15526;SDS011;7865;50.918;4.510;2023-07-08T11:01:53;8.85;;;6.72;;
15526;SDS011;7865;50.918;4.510;2023-07-08T11:18:07;9.23;;;7.03;;
15526;SDS011;7865;50.918;4.510;2023-07-08T11:28:38;10.15;;;6.57;;
15526;SDS011;7865;50.918;4.510;2023-07-08T11:33:39;8.45;;;7.55;;
15526;SDS011;7865;50.918;4.510;2023-07-08T11:38:48;9.10;;;7.18;;
15526;SDS011;7865;50.918;4.510;2023-07-08T11:44:12;9.90;;;6.70;;
15526;SDS011;7865;50.918;4.510;2023-07-08T11:49:13;8.55;;;5.57;;
15526;SDS011;7865;50.918;4.510;2023-07-08T11:54:20;6.90;;;5.80;;
15526;SDS011;7865;50.918;4.510;2023-07-08T11:59:29;9.90;;;6.22;;
15526;SDS011;7865;50.918;4.510;2023-07-08T12:04:34;6.82;;;5.00;;
15526;SDS011;7865;50.918;4.510;2023-07-08T12:09:38;6.68;;;5.32;;
15526;SDS011;7865;50.918;4.510;2023-07-08T12:14:46;7.75;;;5.30;;
15526;SDS011;7865;50.918;4.510;2023-07-08T12:19:47;11.00;;;5.35;;
15526;SDS011;7865;50.918;4.510;2023-07-08T12:24:51;9.52;;;6.22;;
15526;SDS011;7865;50.918;4.510;2023-07-08T12:29:53;9.30;;;6.05;;
15526;SDS011;7865;50.918;4.510;2023-07-08T12:34:54;6.65;;;5.00;;
15526;SDS011;7865;50.918;4.510;2023-07-08T12:39:55;7.05;;;5.30;;
15526;SDS011;7865;50.918;4.510;2023-07-08T12:45:00;8.35;;;5.53;;
15526;SDS011;7865;50.918;4.510;2023-07-08T12:50:01;10.80;;;5.85;;
15526;SDS011;7865;50.918;4.510;2023-07-08T12:55:03;7.15;;;5.70;;
15526;SDS011;7865;50.918;4.510;2023-07-08T13:00:05;9.30;;;4.82;;
15526;SDS011;7865;50.918;4.510;2023-07-08T13:05:07;11.93;;;4.35;;
15526;SDS011;7865;50.918;4.510;2023-07-08T13:10:18;9.30;;;4.10;;
15526;SDS011;7865;50.918;4.510;2023-07-08T13:15:23;9.50;;;4.80;;
15526;SDS011;7865;50.918;4.510;2023-07-08T13:20:30;10.00;;;4.95;;
15526;SDS011;7865;50.918;4.510;2023-07-08T13:25:32;8.45;;;4.93;;
15526;SDS011;7865;50.918;4.510;2023-07-08T13:30:33;9.90;;;4.88;;
15526;SDS011;7865;50.918;4.510;2023-07-08T13:35:38;15.77;;;5.82;;
15526;SDS011;7865;50.918;4.510;2023-07-08T13:40:42;16.30;;;6.47;;
15526;SDS011;7865;50.918;4.510;2023-07-08T13:45:47;14.90;;;6.43;;
15526;SDS011;7865;50.918;4.510;2023-07-08T13:51:01;11.88;;;5.03;;
15526;SDS011;7865;50.918;4.510;2023-07-08T13:56:21;12.10;;;5.90;;
15526;SDS011;7865;50.918;4.510;2023-07-08T14:01:26;14.77;;;6.57;;
15526;SDS011;7865;50.918;4.510;2023-07-08T14:06:36;11.10;;;5.97;;
15526;SDS011;7865;50.918;4.510;2023-07-08T14:11:39;11.60;;;5.45;;
15526;SDS011;7865;50.918;4.510;2023-07-08T14:16:44;12.32;;;5.20;;
15526;SDS011;7865;50.918;4.510;2023-07-08T14:21:50;10.82;;;5.70;;
15526;SDS011;7865;50.918;4.510;2023-07-08T14:26:54;11.35;;;5.38;;
15526;SDS011;7865;50.918;4.510;2023-07-08T14:31:55;9.27;;;5.53;;
15526;SDS011;7865;50.918;4.510;2023-07-08T14:36:57;8.43;;;4.43;;
15526;SDS011;7865;50.918;4.510;2023-07-08T14:42:01;7.43;;;4.43;;
15526;SDS011;7865;50.918;4.510;2023-07-08T14:47:04;7.03;;;4.18;;
15526;SDS011;7865;50.918;4.510;2023-07-08T14:52:09;6.70;;;4.40;;
15526;SDS011;7865;50.918;4.510;2023-07-08T14:57:11;7.85;;;4.38;;
15526;SDS011;7865;50.918;4.510;2023-07-08T15:02:18;8.75;;;4.45;;
15526;SDS011;7865;50.918;4.510;2023-07-08T15:07:21;6.55;;;4.35;;
15526;SDS011;7865;50.918;4.510;2023-07-08T15:12:22;6.72;;;4.10;;
15526;SDS011;7865;50.918;4.510;2023-07-08T15:17:23;5.28;;;4.10;;
15526;SDS011;7865;50.918;4.510;2023-07-08T15:22:25;7.72;;;3.97;;
15526;SDS011;7865;50.918;4.510;2023-07-08T15:27:26;8.65;;;4.30;;
15526;SDS011;7865;50.918;4.510;2023-07-08T15:32:27;8.35;;;4.00;;
15526;SDS011;7865;50.918;4.510;2023-07-08T15:37:42;5.50;;;3.63;;
15526;SDS011;7865;50.918;4.510;2023-07-08T15:42:45;6.93;;;4.28;;
15526;SDS011;7865;50.918;4.510;2023-07-08T15:47:48;7.63;;;3.85;;
15526;SDS011;7865;50.918;4.510;2023-07-08T15:52:50;8.20;;;4.30;;
15526;SDS011;7865;50.918;4.510;2023-07-08T15:58:02;10.25;;;4.45;;
15526;SDS011;7865;50.918;4.510;2023-07-08T16:03:17;7.70;;;4.63;;
15526;SDS011;7865;50.918;4.510;2023-07-08T16:08:29;7.13;;;4.07;;
15526;SDS011;7865;50.918;4.510;2023-07-08T16:13:32;8.05;;;4.63;;
15526;SDS011;7865;50.918;4.510;2023-07-08T16:18:38;7.55;;;4.85;;
15526;SDS011;7865;50.918;4.510;2023-07-08T16:23:40;7.68;;;4.57;;
15526;SDS011;7865;50.918;4.510;2023-07-08T16:28:42;7.55;;;4.55;;
15526;SDS011;7865;50.918;4.510;2023-07-08T16:33:46;8.00;;;5.50;;
15526;SDS011;7865;50.918;4.510;2023-07-08T16:38:48;6.00;;;4.72;;
15526;SDS011;7865;50.918;4.510;2023-07-08T16:43:49;8.20;;;5.15;;
15526;SDS011;7865;50.918;4.510;2023-07-08T16:48:53;9.13;;;5.30;;
15526;SDS011;7865;50.918;4.510;2023-07-08T16:54:00;8.65;;;5.28;;
15526;SDS011;7865;50.918;4.510;2023-07-08T16:59:11;9.60;;;5.30;;
15526;SDS011;7865;50.918;4.510;2023-07-08T17:04:14;9.68;;;5.22;;
15526;SDS011;7865;50.918;4.510;2023-07-08T17:09:16;10.00;;;6.03;;
15526;SDS011;7865;50.918;4.510;2023-07-08T17:14:17;8.73;;;5.18;;
15526;SDS011;7865;50.918;4.510;2023-07-08T17:19:18;6.75;;;5.22;;
15526;SDS011;7865;50.918;4.510;2023-07-08T17:24:20;9.23;;;5.25;;
15526;SDS011;7865;50.918;4.510;2023-07-08T17:29:22;8.73;;;4.60;;
15526;SDS011;7865;50.918;4.510;2023-07-08T17:34:25;5.80;;;4.03;;
15526;SDS011;7865;50.918;4.510;2023-07-08T17:39:28;5.13;;;3.80;;
15526;SDS011;7865;50.918;4.510;2023-07-08T17:44:29;8.27;;;3.92;;
15526;SDS011;7865;50.918;4.510;2023-07-08T17:49:30;7.05;;;3.72;;
15526;SDS011;7865;50.918;4.510;2023-07-08T17:54:32;5.43;;;3.33;;
15526;SDS011;7865;50.918;4.510;2023-07-08T17:59:33;6.60;;;3.55;;
15526;SDS011;7865;50.918;4.510;2023-07-08T18:04:34;7.35;;;4.10;;
15526;SDS011;7865;50.918;4.510;2023-07-08T18:09:36;7.68;;;4.07;;
15526;SDS011;7865;50.918;4.510;2023-07-08T18:14:37;5.38;;;3.58;;
15526;SDS011;7865;50.918;4.510;2023-07-08T18:19:39;4.65;;;3.50;;
15526;SDS011;7865;50.918;4.510;2023-07-08T18:24:40;5.35;;;3.17;;
15526;SDS011;7865;50.918;4.510;2023-07-08T18:29:43;8.07;;;3.88;;
15526;SDS011;7865;50.918;4.510;2023-07-08T18:34:45;9.25;;;4.15;;
15526;SDS011;7865;50.918;4.510;2023-07-08T18:39:46;7.82;;;3.30;;
15526;SDS011;7865;50.918;4.510;2023-07-08T18:44:48;5.22;;;3.30;;
15526;SDS011;7865;50.918;4.510;2023-07-08T18:49:49;8.00;;;3.85;;
15526;SDS011;7865;50.918;4.510;2023-07-08T18:54:50;5.45;;;3.80;;
15526;SDS011;7865;50.918;4.510;2023-07-08T18:59:52;4.80;;;3.92;;
15526;SDS011;7865;50.918;4.510;2023-07-08T19:04:53;6.35;;;3.80;;
15526;SDS011;7865;50.918;4.510;2023-07-08T19:09:55;5.45;;;3.10;;
15526;SDS011;7865;50.918;4.510;2023-07-08T19:14:56;7.10;;;3.42;;
15526;SDS011;7865;50.918;4.510;2023-07-08T19:19:58;7.60;;;3.58;;
15526;SDS011;7865;50.918;4.510;2023-07-08T19:24:59;4.75;;;3.67;;
15526;SDS011;7865;50.918;4.510;2023-07-08T19:30:00;7.03;;;3.60;;
15526;SDS011;7865;50.918;4.510;2023-07-08T19:35:01;6.13;;;3.80;;
15526;SDS011;7865;50.918;4.510;2023-07-08T19:40:03;6.45;;;4.32;;
15526;SDS011;7865;50.918;4.510;2023-07-08T19:45:05;5.88;;;3.40;;
15526;SDS011;7865;50.918;4.510;2023-07-08T19:50:15;6.13;;;4.05;;
15526;SDS011;7865;50.918;4.510;2023-07-08T19:55:17;6.18;;;4.20;;
15526;SDS011;7865;50.918;4.510;2023-07-08T20:00:20;4.60;;;3.55;;
15526;SDS011;7865;50.918;4.510;2023-07-08T20:05:38;6.68;;;3.85;;
15526;SDS011;7865;50.918;4.510;2023-07-08T20:10:40;6.93;;;3.65;;
15526;SDS011;7865;50.918;4.510;2023-07-08T20:15:41;7.97;;;4.13;;
15526;SDS011;7865;50.918;4.510;2023-07-08T20:20:43;4.43;;;3.67;;
15526;SDS011;7865;50.918;4.510;2023-07-08T20:25:44;5.43;;;4.03;;
15526;SDS011;7865;50.918;4.510;2023-07-08T20:30:48;7.22;;;4.22;;
15526;SDS011;7865;50.918;4.510;2023-07-08T20:35:50;7.13;;;4.43;;
15526;SDS011;7865;50.918;4.510;2023-07-08T20:40:51;7.35;;;4.53;;
15526;SDS011;7865;50.918;4.510;2023-07-08T20:45:53;5.80;;;3.70;;
15526;SDS011;7865;50.918;4.510;2023-07-08T20:50:55;5.07;;;4.30;;
15526;SDS011;7865;50.918;4.510;2023-07-08T20:55:57;7.63;;;5.07;;
15526;SDS011;7865;50.918;4.510;2023-07-08T21:00:58;7.43;;;4.32;;
15526;SDS011;7865;50.918;4.510;2023-07-08T21:05:59;9.50;;;5.13;;
15526;SDS011;7865;50.918;4.510;2023-07-08T21:11:02;13.60;;;5.97;;
15526;SDS011;7865;50.918;4.510;2023-07-08T21:16:07;9.45;;;5.90;;
15526;SDS011;7865;50.918;4.510;2023-07-08T21:21:13;12.07;;;6.55;;
15526;SDS011;7865;50.918;4.510;2023-07-08T21:26:26;11.32;;;7.20;;
15526;SDS011;7865;50.918;4.510;2023-07-08T21:31:29;16.45;;;7.30;;
15526;SDS011;7865;50.918;4.510;2023-07-08T21:36:32;17.90;;;7.10;;
15526;SDS011;7865;50.918;4.510;2023-07-08T21:41:35;10.30;;;5.68;;
15526;SDS011;7865;50.918;4.510;2023-07-08T21:46:36;15.40;;;7.00;;
15526;SDS011;7865;50.918;4.510;2023-07-08T21:51:38;11.70;;;6.78;;
15526;SDS011;7865;50.918;4.510;2023-07-08T21:56:40;11.30;;;6.85;;
15526;SDS011;7865;50.918;4.510;2023-07-08T22:01:42;11.38;;;6.63;;
15526;SDS011;7865;50.918;4.510;2023-07-08T22:06:44;9.75;;;6.53;;
15526;SDS011;7865;50.918;4.510;2023-07-08T22:11:45;10.50;;;6.95;;
15526;SDS011;7865;50.918;4.510;2023-07-08T22:16:47;9.57;;;6.05;;
15526;SDS011;7865;50.918;4.510;2023-07-08T22:22:08;13.77;;;6.25;;
15526;SDS011;7865;50.918;4.510;2023-07-08T22:27:10;11.73;;;6.53;;
15526;SDS011;7865;50.918;4.510;2023-07-08T22:32:12;11.07;;;6.35;;
15526;SDS011;7865;50.918;4.510;2023-07-08T22:37:13;10.45;;;6.07;;
15526;SDS011;7865;50.918;4.510;2023-07-08T22:42:15;8.50;;;5.47;;
15526;SDS011;7865;50.918;4.510;2023-07-08T22:47:17;8.48;;;5.95;;
15526;SDS011;7865;50.918;4.510;2023-07-08T22:52:28;11.85;;;7.10;;
15526;SDS011;7865;50.918;4.510;2023-07-08T22:57:31;9.65;;;6.75;;
15526;SDS011;7865;50.918;4.510;2023-07-08T23:02:33;9.07;;;6.53;;
15526;SDS011;7865;50.918;4.510;2023-07-08T23:07:35;10.57;;;7.57;;
15526;SDS011;7865;50.918;4.510;2023-07-08T23:12:36;8.63;;;6.97;;
15526;SDS011;7865;50.918;4.510;2023-07-08T23:17:41;8.98;;;7.18;;
15526;SDS011;7865;50.918;4.510;2023-07-08T23:22:44;9.10;;;7.22;;
15526;SDS011;7865;50.918;4.510;2023-07-08T23:27:45;10.02;;;6.53;;
15526;SDS011;7865;50.918;4.510;2023-07-08T23:32:47;7.85;;;6.47;;
15526;SDS011;7865;50.918;4.510;2023-07-08T23:37:49;14.63;;;6.82;;
15526;SDS011;7865;50.918;4.510;2023-07-08T23:42:50;9.07;;;7.28;;
15526;SDS011;7865;50.918;4.510;2023-07-08T23:47:51;11.80;;;7.15;;
15526;SDS011;7865;50.918;4.510;2023-07-08T23:52:53;10.30;;;6.63;;
15526;SDS011;7865;50.918;4.510;2023-07-08T23:57:54;7.95;;;6.90;;
